Time;durP1;ratioP1;P1;durP2;ratioP2;P2;SDS_P1;SDS_P2;PMS_P1;PMS_P2;Temp;Humidity;BMP_temperature;BMP_pressure;BME280_temperature;BME280_humidity;BME280_pressure;Samples;Min_cycle;Max_cycle;Signal;HPM_P1;HPM_P2
2023/10/12 00:00:28;;;;;;;11.47;5.60;;;16.50;99.90;;;;;;4952756;28;20472;-70
2023/10/12 00:02:57;;;;;;;9.20;5.80;;;16.50;99.90;;;;;;4953770;28;20503;-71
2023/10/12 00:05:27;;;;;;;6.80;6.10;;;16.50;99.90;;;;;;4959953;28;20437;-70
2023/10/12 00:07:55;;;;;;;11.67;5.70;;;16.50;99.90;;;;;;4962709;28;20427;-70
2023/10/12 00:10:21;;;;;;;7.23;4.97;;;16.40;99.90;;;;;;4967399;28;20443;-70
2023/10/12 00:12:48;;;;;;;11.27;6.87;;;16.40;99.90;;;;;;4961042;28;20481;-70
2023/10/12 00:17:56;;;;;;;7.17;6.00;;;16.30;99.90;;;;;;4956377;28;20961;-70
2023/10/12 00:23:10;;;;;;;13.63;5.70;;;16.10;99.90;;;;;;4953320;28;20535;-70
2023/10/12 00:25:47;;;;;;;8.10;6.60;;;16.10;99.90;;;;;;4969842;28;20435;-70
2023/10/12 00:28:20;;;;;;;11.87;6.10;;;16.10;99.90;;;;;;4964240;28;20965;-70
2023/10/12 00:30:47;;;;;;;8.20;6.50;;;16.00;99.90;;;;;;4968822;28;20435;-70
2023/10/12 00:33:12;;;;;;;8.83;6.03;;;15.90;99.90;;;;;;4956559;28;20546;-70
2023/10/12 00:35:38;;;;;;;12.83;7.30;;;15.90;99.90;;;;;;4953653;28;20889;-70
2023/10/12 00:38:17;;;;;;;10.13;5.70;;;15.80;99.90;;;;;;4957487;28;20185;-70
2023/10/12 00:40:58;;;;;;;9.00;6.33;;;15.80;99.90;;;;;;4956795;28;20204;-70
2023/10/12 00:43:38;;;;;;;8.00;6.80;;;15.90;99.90;;;;;;4964208;28;20423;-70
2023/10/12 00:46:20;;;;;;;11.90;6.40;;;15.90;99.90;;;;;;4966506;28;20446;-70
2023/10/12 00:48:49;;;;;;;11.10;5.63;;;15.90;99.90;;;;;;4937669;28;20421;-70
2023/10/12 00:51:17;;;;;;;8.67;6.80;;;16.00;99.90;;;;;;4956797;28;20459;-70
2023/10/12 00:53:55;;;;;;;10.17;6.70;;;16.10;99.90;;;;;;4957493;28;20543;-70
2023/10/12 00:56:22;;;;;;;9.47;7.00;;;16.20;99.90;;;;;;4968546;28;20439;-70
2023/10/12 00:58:50;;;;;;;10.03;5.87;;;16.30;99.90;;;;;;4970934;28;20424;-70
2023/10/12 01:01:18;;;;;;;7.30;6.10;;;16.30;99.90;;;;;;4972737;28;20493;-70
2023/10/12 01:03:45;;;;;;;7.77;5.67;;;16.40;99.90;;;;;;4975489;28;20490;-70
2023/10/12 01:08:42;;;;;;;7.70;6.60;;;16.50;99.90;;;;;;4957623;28;20469;-70
2023/10/12 01:11:21;;;;;;;9.53;5.80;;;16.60;99.90;;;;;;4972677;28;20194;-70
2023/10/12 01:14:03;;;;;;;9.10;6.40;;;16.60;99.90;;;;;;4952718;28;20440;-70
2023/10/12 01:16:44;;;;;;;7.73;5.67;;;16.70;99.90;;;;;;4959409;28;20931;-70
2023/10/12 01:19:10;;;;;;;8.70;5.53;;;16.80;99.90;;;;;;4955671;28;20471;-70
2023/10/12 01:21:36;;;;;;;7.40;6.70;;;16.90;99.90;;;;;;4956004;28;20500;-70
2023/10/12 01:24:11;;;;;;;8.17;6.00;;;17.10;99.90;;;;;;4955029;28;20436;-70
2023/10/12 01:26:44;;;;;;;6.80;6.20;;;17.20;99.90;;;;;;4957952;28;20446;-70
2023/10/12 01:29:19;;;;;;;11.30;6.70;;;17.20;99.90;;;;;;4956254;28;20439;-70
2023/10/12 01:31:51;;;;;;;7.00;5.50;;;17.30;99.90;;;;;;4956824;28;20577;-70
2023/10/12 01:34:17;;;;;;;12.30;6.70;;;17.30;99.90;;;;;;4954416;28;21019;-70
2023/10/12 01:36:43;;;;;;;8.13;6.20;;;17.40;99.90;;;;;;4958151;28;20444;-70
2023/10/12 01:39:14;;;;;;;15.27;6.23;;;17.40;99.90;;;;;;4967382;28;20189;-70
2023/10/12 01:41:43;;;;;;;10.13;6.10;;;17.40;99.90;;;;;;4967056;28;20458;-70
2023/10/12 01:44:10;;;;;;;6.20;5.67;;;17.50;99.90;;;;;;4959246;28;20908;-70
2023/10/12 01:46:42;;;;;;;10.97;6.27;;;17.50;99.90;;;;;;4963146;28;20475;-70
2023/10/12 01:49:09;;;;;;;14.73;6.97;;;17.50;99.90;;;;;;4960932;28;20442;-70
2023/10/12 01:51:45;;;;;;;8.13;6.20;;;17.50;99.90;;;;;;4955124;28;20444;-70
2023/10/12 01:54:22;;;;;;;10.20;7.17;;;17.50;99.90;;;;;;4970288;28;20470;-70
2023/10/12 01:56:51;;;;;;;9.73;6.17;;;17.50;99.90;;;;;;4952163;28;21076;-70
2023/10/12 01:59:19;;;;;;;7.13;6.00;;;17.50;99.90;;;;;;4969375;28;20507;-70
2023/10/12 02:01:53;;;;;;;5.57;5.07;;;17.60;99.90;;;;;;4955756;28;20448;-70
2023/10/12 02:04:21;;;;;;;9.53;6.93;;;17.60;99.90;;;;;;4961802;28;20440;-70
2023/10/12 02:06:47;;;;;;;7.73;6.60;;;17.70;99.90;;;;;;4948232;29;20479;-70
2023/10/12 02:09:15;;;;;;;8.80;6.20;;;17.70;99.90;;;;;;4966537;28;20919;-70
2023/10/12 02:11:45;;;;;;;6.73;6.03;;;17.70;99.90;;;;;;4962643;28;20212;-70
2023/10/12 02:14:22;;;;;;;10.50;5.97;;;17.80;99.90;;;;;;4967810;28;20436;-70
2023/10/12 02:16:53;;;;;;;7.57;5.50;;;17.70;99.90;;;;;;4968705;28;20833;-70
2023/10/12 02:19:24;;;;;;;8.97;6.07;;;17.70;99.90;;;;;;4966836;28;20470;-70
2023/10/12 02:21:50;;;;;;;7.67;6.60;;;17.70;99.90;;;;;;4960739;28;20484;-70
2023/10/12 02:24:18;;;;;;;6.10;5.50;;;17.70;99.90;;;;;;4948137;28;21016;-70
2023/10/12 02:29:17;;;;;;;7.17;6.43;;;17.60;99.90;;;;;;4973173;28;20451;-70
2023/10/12 02:34:17;;;;;;;8.80;5.40;;;17.60;99.90;;;;;;4962173;28;20470;-70
2023/10/12 02:39:43;;;;;;;8.83;6.70;;;17.50;99.90;;;;;;4958011;28;20470;-70
2023/10/12 02:42:17;;;;;;;6.60;6.00;;;17.50;99.90;;;;;;4957034;28;20458;-70
2023/10/12 02:47:22;;;;;;;5.73;5.13;;;17.50;99.90;;;;;;4953887;28;20790;-70
2023/10/12 02:50:00;;;;;;;13.97;7.50;;;17.50;99.90;;;;;;4959323;28;20793;-70
2023/10/12 02:52:27;;;;;;;9.50;7.20;;;17.60;99.90;;;;;;4965577;28;20440;-70
2023/10/12 02:54:55;;;;;;;10.43;5.50;;;17.60;99.90;;;;;;4964304;28;20454;-70
2023/10/12 02:57:25;;;;;;;8.03;6.00;;;17.60;99.90;;;;;;4964345;28;20440;-70
2023/10/12 03:00:07;;;;;;;6.50;5.67;;;17.60;99.90;;;;;;4958894;28;20510;-70
2023/10/12 03:02:32;;;;;;;7.63;6.30;;;17.60;99.90;;;;;;4963782;28;20448;-70
2023/10/12 03:05:04;;;;;;;6.27;5.50;;;17.60;99.90;;;;;;4973473;28;20467;-70
2023/10/12 03:07:31;;;;;;;10.20;5.60;;;17.60;99.90;;;;;;4969465;28;20187;-70
2023/10/12 03:09:59;;;;;;;8.90;5.77;;;17.60;99.90;;;;;;4966787;28;20419;-70
2023/10/12 03:12:25;;;;;;;7.47;5.70;;;17.70;99.90;;;;;;4965087;28;20539;-70
2023/10/12 03:14:51;;;;;;;9.10;6.53;;;17.70;99.90;;;;;;4953771;28;20416;-70
2023/10/12 03:17:20;;;;;;;9.00;5.63;;;17.70;99.90;;;;;;4960883;28;20852;-70
2023/10/12 03:19:55;;;;;;;7.60;6.80;;;17.60;99.90;;;;;;4956302;28;20522;-70
2023/10/12 03:22:34;;;;;;;9.77;6.70;;;17.70;99.90;;;;;;4970062;28;20454;-70
2023/10/12 03:28:00;;;;;;;6.47;5.70;;;17.70;99.90;;;;;;4956352;28;20431;-70
2023/10/12 03:30:34;;;;;;;7.43;6.73;;;17.80;99.90;;;;;;4955326;28;20828;-70
2023/10/12 03:33:02;;;;;;;6.53;5.93;;;17.80;99.90;;;;;;4951211;28;20514;-70
2023/10/12 03:35:33;;;;;;;8.47;6.83;;;17.90;99.90;;;;;;4953472;28;20516;-70
2023/10/12 03:38:12;;;;;;;8.90;5.83;;;18.00;99.90;;;;;;4964983;28;20465;-70
2023/10/12 03:40:50;;;;;;;7.33;5.83;;;18.00;99.90;;;;;;4966830;28;20462;-70
2023/10/12 03:43:34;;;;;;;13.73;6.30;;;18.00;99.90;;;;;;4964981;28;20575;-70
2023/10/12 03:46:27;;;;;;;6.23;5.60;;;18.00;99.90;;;;;;4963555;28;20456;-70
2023/10/12 03:52:01;;;;;;;7.87;5.67;;;18.00;99.90;;;;;;4945387;29;20454;-70
2023/10/12 03:54:29;;;;;;;9.50;5.87;;;18.00;99.90;;;;;;4952966;28;20424;-70
2023/10/12 03:57:07;;;;;;;11.30;6.20;;;18.00;99.90;;;;;;4952879;29;20935;-70
2023/10/12 03:59:52;;;;;;;7.57;5.40;;;18.10;99.90;;;;;;4967539;28;20455;-70
2023/10/12 04:02:17;;;;;;;9.63;5.97;;;18.10;99.90;;;;;;4966824;28;20459;-70
2023/10/12 04:04:59;;;;;;;6.83;5.90;;;18.10;99.90;;;;;;4950438;28;20452;-70
2023/10/12 04:07:39;;;;;;;7.33;5.97;;;18.10;99.90;;;;;;4953650;28;20683;-70
2023/10/12 04:10:13;;;;;;;8.37;6.00;;;18.00;99.90;;;;;;4961501;28;20440;-70
2023/10/12 04:12:52;;;;;;;5.80;5.30;;;18.00;99.90;;;;;;4935333;28;20500;-70
2023/10/12 04:15:27;;;;;;;7.90;5.80;;;17.90;99.90;;;;;;4964760;28;20427;-70
2023/10/12 04:17:59;;;;;;;7.57;6.60;;;17.90;99.90;;;;;;4969780;28;20422;-70
2023/10/12 04:20:24;;;;;;;5.70;5.20;;;17.90;99.90;;;;;;4956130;28;20467;-70
2023/10/12 04:31:20;;;;;;;10.53;5.90;;;17.70;99.90;;;;;;4957970;28;20459;-70
2023/10/12 04:34:05;;;;;;;7.60;5.60;;;17.80;99.90;;;;;;4970614;28;20438;-70
2023/10/12 04:36:27;;;;;;;7.17;6.33;;;17.70;99.90;;;;;;4959370;28;20451;-70
2023/10/12 04:38:57;;;;;;;7.60;6.93;;;17.70;99.90;;;;;;4965042;28;20435;-70
2023/10/12 04:41:37;;;;;;;6.57;5.87;;;17.70;99.90;;;;;;4964375;28;20578;-70
2023/10/12 04:44:06;;;;;;;6.47;5.63;;;17.70;99.90;;;;;;4966187;28;20514;-70
2023/10/12 04:46:47;;;;;;;8.13;5.63;;;17.60;99.90;;;;;;4967818;28;20431;-70
2023/10/12 04:49:36;;;;;;;9.53;5.37;;;17.70;99.90;;;;;;4974334;28;20486;-70
2023/10/12 04:55:06;;;;;;;9.60;8.70;;;17.60;99.90;;;;;;4956406;28;20444;-70
2023/10/12 04:57:33;;;;;;;8.73;5.53;;;17.60;99.90;;;;;;4972668;28;20439;-70
2023/10/12 05:06:04;;;;;;;7.97;5.60;;;17.50;99.90;;;;;;4967730;28;20783;-70
2023/10/12 05:08:05;;;;;;;8.67;6.10;;;17.40;99.90;;;;;;4966971;28;20451;-70
2023/10/12 05:10:31;;;;;;;7.63;6.20;;;17.40;99.90;;;;;;4961187;28;20444;-70
2023/10/12 05:13:10;;;;;;;8.33;6.20;;;17.50;99.90;;;;;;5004467;23;20723;-69
2023/10/12 05:15:42;;;;;;;6.53;5.53;;;17.50;99.90;;;;;;4987552;28;20437;-69
2023/10/12 05:18:13;;;;;;;8.20;5.30;;;17.50;99.90;;;;;;4995057;28;20414;-69
2023/10/12 05:20:42;;;;;;;8.87;5.90;;;17.60;99.90;;;;;;4990672;28;20863;-69
2023/10/12 05:23:08;;;;;;;8.17;6.00;;;17.60;99.90;;;;;;4976055;28;20795;-69
2023/10/12 05:28:21;;;;;;;8.77;6.57;;;17.60;99.90;;;;;;4986877;28;20430;-69
2023/10/12 05:30:55;;;;;;;10.03;5.97;;;17.60;99.90;;;;;;4985048;28;20439;-69
2023/10/12 05:36:09;;;;;;;7.23;6.23;;;17.60;99.90;;;;;;4988352;28;20543;-69
2023/10/12 05:38:36;;;;;;;7.53;6.60;;;17.60;99.90;;;;;;4988480;28;20815;-69
2023/10/12 05:41:04;;;;;;;8.23;6.20;;;17.60;99.90;;;;;;4985297;28;20554;-69
2023/10/12 05:43:33;;;;;;;8.87;7.07;;;17.50;99.90;;;;;;4986153;28;20450;-69
2023/10/12 05:46:09;;;;;;;7.73;5.97;;;17.60;99.90;;;;;;4990443;28;20437;-69
2023/10/12 05:48:37;;;;;;;9.10;6.07;;;17.60;99.90;;;;;;4992843;28;20435;-68
2023/10/12 05:51:03;;;;;;;9.17;6.77;;;17.60;99.90;;;;;;4990878;28;20470;-69
2023/10/12 05:53:29;;;;;;;8.10;5.53;;;17.60;99.90;;;;;;4986094;28;20819;-69
2023/10/12 05:55:56;;;;;;;6.63;6.03;;;17.60;99.90;;;;;;4990060;28;20521;-69
2023/10/12 05:58:22;;;;;;;8.30;5.43;;;17.70;99.90;;;;;;4990699;28;20210;-68
2023/10/12 06:00:52;;;;;;;10.13;6.37;;;17.70;99.90;;;;;;4984647;28;20462;-68
2023/10/12 06:03:20;;;;;;;9.77;6.00;;;17.70;99.90;;;;;;4983160;28;20827;-68
2023/10/12 06:05:47;;;;;;;6.37;5.73;;;17.80;99.90;;;;;;4987586;28;20435;-68
2023/10/12 06:08:17;;;;;;;7.33;6.50;;;17.90;99.90;;;;;;4984256;28;20468;-68
2023/10/12 06:10:42;;;;;;;6.70;5.80;;;17.90;99.90;;;;;;4985166;28;20462;-68
2023/10/12 06:13:09;;;;;;;7.57;6.27;;;18.00;99.90;;;;;;4989553;28;20482;-69
2023/10/12 06:15:40;;;;;;;9.63;6.70;;;18.10;99.90;;;;;;4985566;28;20243;-68
2023/10/12 06:18:10;;;;;;;9.27;6.57;;;18.20;99.90;;;;;;4986601;28;20443;-68
2023/10/12 06:20:40;;;;;;;7.83;6.90;;;18.30;99.90;;;;;;4982064;28;20525;-68
2023/10/12 06:23:08;;;;;;;7.83;6.30;;;18.40;99.90;;;;;;4988219;28;20462;-70
2023/10/12 06:25:38;;;;;;;6.40;5.80;;;18.50;99.90;;;;;;4985101;28;20453;-68
2023/10/12 06:28:14;;;;;;;7.03;6.00;;;18.60;99.90;;;;;;4984585;28;20434;-68
2023/10/12 06:30:40;;;;;;;11.10;6.47;;;18.70;99.90;;;;;;4989306;28;20442;-67
2023/10/12 06:33:12;;;;;;;11.83;5.90;;;18.80;99.90;;;;;;4990992;28;20509;-68
2023/10/12 06:35:51;;;;;;;6.80;5.83;;;18.90;99.90;;;;;;4989118;28;20438;-67
2023/10/12 06:38:22;;;;;;;9.63;6.30;;;19.00;99.90;;;;;;4988773;28;20553;-68
2023/10/12 06:40:48;;;;;;;8.33;5.47;;;19.10;99.90;;;;;;4989227;28;20462;-68
2023/10/12 06:45:55;;;;;;;8.60;6.37;;;19.20;99.90;;;;;;4982349;28;20963;-68
2023/10/12 06:51:05;;;;;;;8.33;6.03;;;19.50;99.90;;;;;;4990409;28;20474;-69
2023/10/12 06:53:35;;;;;;;9.80;6.67;;;19.60;99.90;;;;;;4988860;28;20458;-68
2023/10/12 06:58:45;;;;;;;9.13;7.63;;;19.90;99.90;;;;;;4985290;28;20955;-69
2023/10/12 07:01:21;;;;;;;7.90;6.47;;;19.90;99.90;;;;;;4984927;28;20490;-69
2023/10/12 07:03:49;;;;;;;9.17;5.70;;;19.90;99.90;;;;;;4976447;28;20467;-69
2023/10/12 07:06:16;;;;;;;7.53;6.07;;;20.10;99.90;;;;;;4980742;28;20439;-69
2023/10/12 07:08:43;;;;;;;8.67;6.27;;;20.30;99.90;;;;;;4989309;28;20530;-69
2023/10/12 07:11:11;;;;;;;7.60;5.87;;;20.60;99.90;;;;;;4991135;28;20788;-69
2023/10/12 07:13:41;;;;;;;12.53;5.70;;;20.80;99.90;;;;;;4990635;28;20477;-68
2023/10/12 07:16:10;;;;;;;9.80;5.77;;;20.70;99.90;;;;;;4988544;28;20462;-69
2023/10/12 07:18:42;;;;;;;7.97;6.83;;;20.70;99.90;;;;;;4987980;28;20443;-68
2023/10/12 07:21:20;;;;;;;10.17;7.80;;;20.70;99.90;;;;;;4986900;28;21093;-68
2023/10/12 07:23:52;;;;;;;9.07;7.03;;;20.90;99.90;;;;;;4984213;28;20883;-68
2023/10/12 07:26:18;;;;;;;7.57;6.63;;;20.90;99.90;;;;;;4991705;28;20431;-68
2023/10/12 07:28:49;;;;;;;6.37;5.77;;;21.20;99.90;;;;;;4989487;28;20835;-68
2023/10/12 07:41:41;;;;;;;10.00;6.87;;;21.30;99.90;;;;;;4989452;28;20562;-68
2023/10/12 07:44:07;;;;;;;7.33;6.20;;;21.30;99.90;;;;;;4991854;28;20462;-68
2023/10/12 07:46:35;;;;;;;8.40;6.10;;;20.90;99.90;;;;;;4988704;28;20180;-68
2023/10/12 07:49:21;;;;;;;7.77;5.60;;;21.00;99.90;;;;;;4990092;28;20430;-68
2023/10/12 07:57:15;;;;;;;7.73;5.73;;;20.60;99.90;;;;;;4993361;28;20489;-68
2023/10/12 08:02:43;;;;;;;8.80;5.97;;;20.40;99.90;;;;;;4985641;28;20964;-68
2023/10/12 08:23:38;;;;;;;10.53;6.43;;;20.20;99.90;;;;;;4994125;28;20445;-68
2023/10/12 08:26:04;;;;;;;7.90;5.87;;;20.30;99.90;;;;;;4991918;28;20435;-68
2023/10/12 08:28:37;;;;;;;6.70;6.00;;;20.20;99.90;;;;;;4992654;28;20184;-68
2023/10/12 08:31:15;;;;;;;8.80;6.67;;;20.20;99.90;;;;;;4990981;28;20176;-68
2023/10/12 08:33:49;;;;;;;8.10;6.50;;;20.10;99.90;;;;;;4988568;28;20434;-68
2023/10/12 08:38:52;;;;;;;7.73;6.37;;;20.10;99.90;;;;;;4992769;28;20434;-68
2023/10/12 08:43:49;;;;;;;7.27;6.60;;;20.00;99.90;;;;;;4992533;28;20430;-68
2023/10/12 08:49:27;;;;;;;9.30;5.90;;;20.20;99.90;;;;;;4988354;28;20465;-68
2023/10/12 08:52:04;;;;;;;8.47;6.70;;;19.90;99.90;;;;;;4983820;28;20455;-68
2023/10/12 08:54:40;;;;;;;11.10;6.20;;;19.90;99.90;;;;;;4992653;28;20430;-68
2023/10/12 08:58:03;;;;;;;10.83;6.60;;;19.80;99.90;;;;;;4990259;28;20860;-68
2023/10/12 09:05:51;;;;;;;13.17;7.40;;;19.70;99.90;;;;;;4986768;28;20851;-68
2023/10/12 09:10:49;;;;;;;11.17;6.70;;;19.70;99.90;;;;;;4990870;28;20812;-69
2023/10/12 09:13:23;;;;;;;12.10;6.70;;;19.70;99.90;;;;;;4991927;28;20482;-68
2023/10/12 09:15:56;;;;;;;7.27;6.57;;;19.80;99.90;;;;;;4986389;28;20474;-68
2023/10/12 09:18:29;;;;;;;10.83;6.40;;;19.70;99.90;;;;;;4987208;28;20450;-69
2023/10/12 09:23:31;;;;;;;8.63;5.90;;;19.70;99.90;;;;;;4985717;28;20454;-69
2023/10/12 09:28:42;;;;;;;14.93;6.60;;;19.80;99.90;;;;;;4989079;28;20807;-67
2023/10/12 09:31:13;;;;;;;13.43;7.97;;;19.90;99.90;;;;;;4989362;28;20785;-67
2023/10/12 09:33:45;;;;;;;12.23;6.73;;;19.90;99.90;;;;;;4986117;28;20493;-67
2023/10/12 09:36:11;;;;;;;9.73;6.70;;;20.00;99.90;;;;;;4992131;28;20482;-67
2023/10/12 09:38:38;;;;;;;10.43;6.30;;;19.90;99.90;;;;;;4990706;28;20443;-67
2023/10/12 09:41:08;;;;;;;8.83;6.97;;;20.00;99.90;;;;;;4992083;28;20991;-67
2023/10/12 09:43:40;;;;;;;8.00;6.77;;;20.00;99.90;;;;;;4989297;28;20528;-66
2023/10/12 09:46:09;;;;;;;8.87;6.50;;;20.10;99.90;;;;;;4987234;28;20434;-67
2023/10/12 09:48:39;;;;;;;10.50;7.13;;;20.10;99.90;;;;;;4981903;28;21015;-66
2023/10/12 09:51:15;;;;;;;8.73;7.00;;;20.10;99.90;;;;;;4990896;28;20456;-68
2023/10/12 09:53:57;;;;;;;6.93;6.23;;;20.20;99.90;;;;;;4985782;28;20445;-66
2023/10/12 09:56:28;;;;;;;8.33;7.33;;;20.30;99.90;;;;;;4989339;28;20446;-66
2023/10/12 10:01:49;;;;;;;11.80;6.97;;;20.40;99.90;;;;;;4983887;28;20470;-65
2023/10/12 10:07:25;;;;;;;7.07;6.37;;;20.50;99.90;;;;;;4991016;28;20442;-69
2023/10/12 10:09:54;;;;;;;8.07;7.17;;;20.50;99.90;;;;;;4987539;28;20810;-67
2023/10/12 10:12:22;;;;;;;10.73;6.17;;;20.90;99.90;;;;;;4989255;28;20913;-68
2023/10/12 10:15:10;;;;;;;8.67;7.70;;;20.60;99.90;;;;;;4983419;28;20534;-67
2023/10/12 10:17:47;;;;;;;9.57;6.60;;;20.60;99.90;;;;;;4990887;28;20443;-68
2023/10/12 10:22:56;;;;;;;7.87;5.73;;;20.70;99.90;;;;;;4993103;28;20470;-69
2023/10/12 10:25:23;;;;;;;10.50;7.90;;;20.80;99.90;;;;;;4991553;28;20441;-66
2023/10/12 10:27:49;;;;;;;8.33;6.30;;;20.90;99.90;;;;;;4989434;28;20877;-66
2023/10/12 10:30:36;;;;;;;10.07;7.10;;;21.00;99.90;;;;;;4982903;28;20527;-66
2023/10/12 10:33:07;;;;;;;8.97;6.70;;;21.10;99.90;;;;;;4984283;28;20298;-66
2023/10/12 10:35:57;;;;;;;8.80;6.80;;;21.10;99.90;;;;;;4974740;28;20427;-65
2023/10/12 10:38:34;;;;;;;9.90;7.03;;;20.90;99.90;;;;;;4975964;28;20458;-65
2023/10/12 10:41:07;;;;;;;8.10;6.67;;;21.00;99.90;;;;;;4981981;28;21052;-66
2023/10/12 10:43:37;;;;;;;10.40;6.43;;;21.00;99.90;;;;;;4973724;28;20436;-66
2023/10/12 10:46:06;;;;;;;16.47;7.27;;;21.10;99.90;;;;;;4973961;28;20473;-66
2023/10/12 10:48:34;;;;;;;11.93;7.23;;;21.00;99.90;;;;;;4973973;28;20562;-69
2023/10/12 10:51:04;;;;;;;10.60;8.30;;;21.00;99.90;;;;;;4973919;28;20485;-67
2023/10/12 10:53:36;;;;;;;7.90;7.20;;;21.10;99.90;;;;;;4983070;28;20465;-67
2023/10/12 10:56:15;;;;;;;10.70;7.73;;;21.20;99.90;;;;;;4985119;28;20878;-68
2023/10/12 10:58:45;;;;;;;10.27;7.50;;;21.30;99.90;;;;;;4993138;28;20565;-68
2023/10/12 11:01:12;;;;;;;13.50;8.17;;;21.30;99.90;;;;;;4992848;28;20458;-67
2023/10/12 11:03:39;;;;;;;9.63;7.53;;;21.30;99.90;;;;;;4983710;28;20435;-67
2023/10/12 11:06:09;;;;;;;7.57;6.37;;;21.40;99.90;;;;;;4980738;28;20442;-68
2023/10/12 11:08:35;;;;;;;11.70;6.70;;;21.40;99.90;;;;;;4982135;28;20529;-68
2023/10/12 11:13:39;;;;;;;10.20;7.43;;;21.60;99.90;;;;;;4974560;28;20829;-68
2023/10/12 11:16:39;;;;;;;7.83;7.03;;;21.70;99.90;;;;;;4984444;28;20468;-68
2023/10/12 11:18:58;;;;;;;9.90;6.63;;;21.70;99.90;;;;;;4980811;28;20422;-68
2023/10/12 11:21:25;;;;;;;10.60;7.70;;;21.80;99.90;;;;;;4981901;28;20466;-68
2023/10/12 11:24:01;;;;;;;8.73;7.80;;;21.90;99.90;;;;;;4986193;28;20435;-68
2023/10/12 11:26:27;;;;;;;7.83;7.03;;;22.00;99.90;;;;;;4984198;28;20939;-68
2023/10/12 11:29:06;;;;;;;8.67;7.80;;;22.00;99.90;;;;;;4992430;28;20426;-68
2023/10/12 11:31:36;;;;;;;11.97;10.10;;;22.10;99.90;;;;;;4991897;28;20438;-68
2023/10/12 11:34:11;;;;;;;16.80;10.83;;;22.10;99.90;;;;;;4992185;28;20990;-68
2023/10/12 11:36:38;;;;;;;9.83;7.87;;;22.10;99.90;;;;;;4991841;28;20422;-67
2023/10/12 11:39:10;;;;;;;10.20;8.07;;;22.10;99.90;;;;;;4983134;28;20434;-68
2023/10/12 11:41:36;;;;;;;7.70;6.90;;;22.10;99.90;;;;;;4973285;28;20455;-67
2023/10/12 11:44:05;;;;;;;9.90;6.53;;;22.10;99.90;;;;;;4971259;28;20419;-68
2023/10/12 11:46:43;;;;;;;9.00;6.57;;;22.20;99.90;;;;;;4973427;28;20251;-68
2023/10/12 11:49:10;;;;;;;7.43;6.73;;;22.20;99.90;;;;;;4972867;28;20419;-68
2023/10/12 11:51:57;;;;;;;10.90;7.30;;;22.30;99.90;;;;;;4976431;28;20549;-68
2023/10/12 11:54:32;;;;;;;11.20;7.20;;;22.60;99.90;;;;;;4983925;28;20427;-68
2023/10/12 11:56:58;;;;;;;7.87;6.50;;;22.70;99.90;;;;;;4992263;28;20415;-68
2023/10/12 11:59:31;;;;;;;9.10;6.77;;;22.90;99.90;;;;;;4992202;28;20477;-68
2023/10/12 12:02:00;;;;;;;11.10;7.07;;;22.90;99.90;;;;;;4991928;28;20485;-68
2023/10/12 12:04:39;;;;;;;7.60;6.83;;;23.10;99.90;;;;;;4991996;28;20514;-67
2023/10/12 12:07:05;;;;;;;11.47;7.03;;;23.20;99.90;;;;;;4990934;28;20437;-68
2023/10/12 12:09:31;;;;;;;11.33;7.10;;;23.30;99.90;;;;;;4988819;28;20439;-67
2023/10/12 12:11:57;;;;;;;7.37;6.57;;;23.50;99.90;;;;;;4986282;28;20455;-68
2023/10/12 12:14:23;;;;;;;7.03;6.33;;;23.60;99.90;;;;;;4991411;28;20895;-67
2023/10/12 12:16:48;;;;;;;8.43;6.37;;;23.80;99.90;;;;;;4992083;28;20506;-67
2023/10/12 12:19:19;;;;;;;7.10;5.90;;;23.80;99.90;;;;;;4992033;28;20254;-68
2023/10/12 12:21:45;;;;;;;8.90;7.00;;;23.80;99.90;;;;;;4992279;28;20249;-68
2023/10/12 12:26:49;;;;;;;9.60;6.30;;;23.60;99.90;;;;;;4982876;28;20447;-67
2023/10/12 12:29:16;;;;;;;11.03;7.00;;;23.40;99.90;;;;;;4975607;28;20427;-68
2023/10/12 12:31:41;;;;;;;7.53;6.30;;;23.40;99.90;;;;;;4971313;28;20976;-67
2023/10/12 12:34:07;;;;;;;7.23;6.43;;;23.20;99.90;;;;;;4972405;28;20419;-68
2023/10/12 12:36:34;;;;;;;18.43;7.20;;;23.20;99.90;;;;;;4972617;28;20192;-67
2023/10/12 12:39:00;;;;;;;8.23;6.60;;;23.10;99.90;;;;;;4972464;28;20574;-68
2023/10/12 12:41:30;;;;;;;14.80;6.70;;;22.90;99.90;;;;;;4974658;28;20463;-68
2023/10/12 12:43:59;;;;;;;16.23;7.07;;;22.70;99.90;;;;;;4988079;28;20439;-68
2023/10/12 12:46:25;;;;;;;9.47;7.20;;;22.60;99.90;;;;;;4993353;28;20427;-68
2023/10/12 12:48:51;;;;;;;7.27;5.60;;;22.50;99.90;;;;;;4994137;28;20798;-68
2023/10/12 12:51:17;;;;;;;7.77;6.67;;;22.40;99.90;;;;;;4995135;28;20423;-68
2023/10/12 12:53:46;;;;;;;11.10;7.27;;;22.30;99.90;;;;;;4995058;28;20451;-68
2023/10/12 12:56:20;;;;;;;7.67;6.23;;;22.20;99.90;;;;;;4995038;28;20804;-67
2023/10/12 12:58:47;;;;;;;13.20;7.03;;;22.20;99.90;;;;;;4994221;28;20488;-67
2023/10/12 13:01:14;;;;;;;11.30;7.00;;;22.10;99.90;;;;;;4986823;28;20481;-68
2023/10/12 13:03:40;;;;;;;9.23;7.67;;;22.00;99.90;;;;;;4975407;28;20859;-68
2023/10/12 13:06:09;;;;;;;13.03;7.40;;;21.90;99.90;;;;;;4975697;28;20443;-68
2023/10/12 13:08:35;;;;;;;11.47;7.47;;;21.90;99.90;;;;;;4975332;28;20173;-67
2023/10/12 13:11:04;;;;;;;12.13;6.73;;;21.90;99.90;;;;;;4974305;28;20434;-67
2023/10/12 13:13:33;;;;;;;8.73;7.23;;;21.80;99.90;;;;;;4974936;28;20503;-68
2023/10/12 13:16:06;;;;;;;11.30;7.27;;;21.80;99.90;;;;;;4978513;28;20483;-68
2023/10/12 13:18:32;;;;;;;10.60;8.23;;;21.80;99.90;;;;;;4981991;28;20936;-68
2023/10/12 13:20:59;;;;;;;8.23;6.93;;;21.80;99.90;;;;;;4975140;28;20459;-68
2023/10/12 13:23:25;;;;;;;7.93;7.20;;;21.80;99.90;;;;;;4974944;28;20822;-69
2023/10/12 13:25:50;;;;;;;13.80;6.70;;;21.80;99.90;;;;;;4975364;28;20427;-68
2023/10/12 13:28:16;;;;;;;8.70;7.80;;;21.90;99.90;;;;;;4975208;28;20431;-68
2023/10/12 13:30:43;;;;;;;10.93;7.00;;;22.10;99.90;;;;;;4986366;28;20230;-68
2023/10/12 13:33:11;;;;;;;9.37;7.60;;;22.30;99.90;;;;;;4986114;28;20302;-68
2023/10/12 13:38:09;;;;;;;9.13;6.73;;;22.60;99.90;;;;;;4994610;28;20501;-68
2023/10/12 13:40:38;;;;;;;10.97;6.60;;;22.70;99.90;;;;;;4994396;28;20463;-68
2023/10/12 13:43:18;;;;;;;11.30;7.17;;;22.70;99.90;;;;;;4993976;28;20453;-68
2023/10/12 13:45:48;;;;;;;10.63;7.40;;;22.80;99.90;;;;;;4993622;28;20419;-68
2023/10/12 13:48:22;;;;;;;11.83;8.37;;;22.90;99.90;;;;;;4982500;28;20542;-68
2023/10/12 13:50:53;;;;;;;12.80;9.20;;;22.90;99.90;;;;;;4993037;28;20426;-68
2023/10/12 13:53:19;;;;;;;10.60;7.20;;;22.90;99.90;;;;;;4991555;28;20455;-68
2023/10/12 13:55:47;;;;;;;12.27;7.47;;;22.80;99.90;;;;;;4994112;28;20423;-68
2023/10/12 13:58:14;;;;;;;17.80;7.63;;;22.90;99.90;;;;;;4994523;28;20430;-68
2023/10/12 14:00:39;;;;;;;22.80;8.20;;;22.70;99.90;;;;;;4993777;28;20528;-68
2023/10/12 14:03:11;;;;;;;20.93;10.17;;;22.70;99.90;;;;;;4990126;28;20478;-68
2023/10/12 14:05:40;;;;;;;18.50;12.77;;;22.70;99.90;;;;;;4985891;28;20176;-68
2023/10/12 14:08:08;;;;;;;16.33;12.53;;;22.70;99.90;;;;;;4993903;28;20418;-68
2023/10/12 14:10:39;;;;;;;21.23;15.00;;;22.80;99.90;;;;;;4993912;28;20795;-67
2023/10/12 14:13:04;;;;;;;18.83;13.93;;;23.00;99.90;;;;;;4992851;28;20469;-67
2023/10/12 14:15:30;;;;;;;21.77;12.77;;;23.10;99.90;;;;;;4984985;28;20534;-66
2023/10/12 14:17:56;;;;;;;20.53;17.30;;;23.00;99.90;;;;;;4982152;28;20249;-67
2023/10/12 14:20:26;;;;;;;15.30;12.10;;;22.90;99.90;;;;;;4988744;28;20207;-67
2023/10/12 14:22:54;;;;;;;16.20;9.53;;;23.10;99.90;;;;;;4990180;28;20466;-66
2023/10/12 14:25:26;;;;;;;11.00;9.13;;;23.00;99.90;;;;;;4985271;28;20497;-68
2023/10/12 14:27:52;;;;;;;9.00;6.07;;;22.80;99.90;;;;;;4993441;28;20788;-67
2023/10/12 14:30:22;;;;;;;9.40;5.60;;;22.80;99.90;;;;;;4993519;28;20429;-67
2023/10/12 14:32:48;;;;;;;7.20;5.53;;;22.80;99.10;;;;;;4993176;28;20637;-67
2023/10/12 14:35:14;;;;;;;14.03;7.77;;;22.80;99.00;;;;;;4992271;28;20442;-67
2023/10/12 14:37:39;;;;;;;7.73;5.47;;;22.80;98.50;;;;;;4982506;28;20432;-67
2023/10/12 14:40:11;;;;;;;7.40;5.70;;;22.80;97.80;;;;;;4985990;28;20204;-67
2023/10/12 14:42:40;;;;;;;7.67;5.70;;;22.90;97.30;;;;;;4992508;28;20206;-67
2023/10/12 14:45:10;;;;;;;8.70;5.50;;;22.90;97.10;;;;;;4993206;28;20423;-67
2023/10/12 14:47:36;;;;;;;5.63;5.00;;;22.80;96.70;;;;;;4993107;28;20505;-66
2023/10/12 14:50:05;;;;;;;6.43;5.83;;;22.80;96.30;;;;;;4992715;28;20517;-67
2023/10/12 14:52:38;;;;;;;10.70;6.50;;;22.80;96.60;;;;;;4984983;28;20505;-67
2023/10/12 14:55:10;;;;;;;12.10;6.17;;;22.90;96.40;;;;;;4973722;28;20426;-67
2023/10/12 14:57:40;;;;;;;6.63;6.03;;;22.80;97.10;;;;;;4972881;28;20431;-67
2023/10/12 15:00:24;;;;;;;9.83;5.40;;;22.80;96.60;;;;;;4973380;28;20467;-67
2023/10/12 15:02:51;;;;;;;7.53;5.60;;;22.80;96.60;;;;;;4973115;28;20865;-67
2023/10/12 15:05:18;;;;;;;9.87;6.17;;;22.80;96.10;;;;;;4972994;28;20528;-67
2023/10/12 15:07:48;;;;;;;6.43;4.87;;;22.80;96.20;;;;;;4989049;28;20450;-67
2023/10/12 15:10:17;;;;;;;9.10;5.63;;;22.80;95.40;;;;;;4984852;28;20432;-67